sensor_id;sensor_type;location;lat;lon;timestamp;P1;durP1;ratioP1;P2;durP2;ratioP2
37529;SDS011;23374;52.758;6.872;2024-02-21T00:00:15;13.57;;;6.80;;
37529;SDS011;23374;52.758;6.872;2024-02-21T00:02:37;21.37;;;8.57;;
37529;SDS011;23374;52.758;6.872;2024-02-21T00:04:59;20.27;;;8.27;;
37529;SDS011;23374;52.758;6.872;2024-02-21T00:07:20;14.63;;;6.13;;
37529;SDS011;23374;52.758;6.872;2024-02-21T00:09:40;14.37;;;7.10;;
37529;SDS011;23374;52.758;6.872;2024-02-21T00:12:01;24.90;;;8.23;;
37529;SDS011;23374;52.758;6.872;2024-02-21T00:14:23;15.03;;;7.37;;
37529;SDS011;23374;52.758;6.872;2024-02-21T00:16:43;16.57;;;8.10;;
37529;SDS011;23374;52.758;6.872;2024-02-21T00:19:03;17.87;;;8.03;;
37529;SDS011;23374;52.758;6.872;2024-02-21T00:21:24;18.60;;;8.20;;
37529;SDS011;23374;52.758;6.872;2024-02-21T00:23:45;16.83;;;8.03;;
37529;SDS011;23374;52.758;6.872;2024-02-21T00:26:10;21.90;;;7.40;;
37529;SDS011;23374;52.758;6.872;2024-02-21T00:28:31;19.23;;;7.30;;
37529;SDS011;23374;52.758;6.872;2024-02-21T00:30:51;12.33;;;5.53;;
37529;SDS011;23374;52.758;6.872;2024-02-21T00:33:13;17.73;;;8.20;;
37529;SDS011;23374;52.758;6.872;2024-02-21T00:35:33;14.30;;;6.43;;
37529;SDS011;23374;52.758;6.872;2024-02-21T00:37:54;19.53;;;7.80;;
37529;SDS011;23374;52.758;6.872;2024-02-21T00:40:17;17.70;;;6.53;;
37529;SDS011;23374;52.758;6.872;2024-02-21T00:42:39;17.97;;;8.50;;
37529;SDS011;23374;52.758;6.872;2024-02-21T00:45:00;21.87;;;8.00;;
37529;SDS011;23374;52.758;6.872;2024-02-21T00:47:20;18.83;;;7.10;;
37529;SDS011;23374;52.758;6.872;2024-02-21T00:49:41;15.33;;;7.40;;
37529;SDS011;23374;52.758;6.872;2024-02-21T00:52:01;17.40;;;7.33;;
37529;SDS011;23374;52.758;6.872;2024-02-21T00:54:22;18.10;;;7.40;;
37529;SDS011;23374;52.758;6.872;2024-02-21T00:56:42;16.87;;;6.73;;
37529;SDS011;23374;52.758;6.872;2024-02-21T00:59:03;12.43;;;6.63;;
37529;SDS011;23374;52.758;6.872;2024-02-21T01:01:24;13.67;;;6.87;;
37529;SDS011;23374;52.758;6.872;2024-02-21T01:03:45;13.90;;;5.63;;
37529;SDS011;23374;52.758;6.872;2024-02-21T01:06:05;16.50;;;6.67;;
37529;SDS011;23374;52.758;6.872;2024-02-21T01:08:26;16.53;;;7.00;;
37529;SDS011;23374;52.758;6.872;2024-02-21T01:10:46;14.17;;;6.47;;
37529;SDS011;23374;52.758;6.872;2024-02-21T01:13:06;13.30;;;6.23;;
37529;SDS011;23374;52.758;6.872;2024-02-21T01:15:27;17.93;;;7.23;;
37529;SDS011;23374;52.758;6.872;2024-02-21T01:17:47;12.53;;;5.93;;
37529;SDS011;23374;52.758;6.872;2024-02-21T01:20:10;15.97;;;6.87;;
37529;SDS011;23374;52.758;6.872;2024-02-21T01:22:31;19.47;;;6.70;;
37529;SDS011;23374;52.758;6.872;2024-02-21T01:24:51;13.70;;;6.47;;
37529;SDS011;23374;52.758;6.872;2024-02-21T01:27:11;15.07;;;6.83;;
37529;SDS011;23374;52.758;6.872;2024-02-21T01:29:31;10.73;;;5.47;;
37529;SDS011;23374;52.758;6.872;2024-02-21T01:31:52;14.23;;;6.30;;
37529;SDS011;23374;52.758;6.872;2024-02-21T01:34:13;15.10;;;5.70;;
37529;SDS011;23374;52.758;6.872;2024-02-21T01:36:34;12.63;;;5.47;;
37529;SDS011;23374;52.758;6.872;2024-02-21T01:38:54;11.50;;;5.87;;
37529;SDS011;23374;52.758;6.872;2024-02-21T01:41:14;16.97;;;6.27;;
37529;SDS011;23374;52.758;6.872;2024-02-21T01:43:36;11.43;;;6.03;;
37529;SDS011;23374;52.758;6.872;2024-02-21T01:45:56;18.93;;;6.73;;
37529;SDS011;23374;52.758;6.872;2024-02-21T01:48:17;13.03;;;6.77;;
37529;SDS011;23374;52.758;6.872;2024-02-21T01:50:38;19.10;;;6.27;;
37529;SDS011;23374;52.758;6.872;2024-02-21T01:52:59;16.40;;;6.80;;
37529;SDS011;23374;52.758;6.872;2024-02-21T01:55:20;13.00;;;5.93;;
37529;SDS011;23374;52.758;6.872;2024-02-21T01:57:42;12.13;;;5.80;;
37529;SDS011;23374;52.758;6.872;2024-02-21T02:00:06;20.27;;;6.37;;
37529;SDS011;23374;52.758;6.872;2024-02-21T02:02:33;11.40;;;5.87;;
37529;SDS011;23374;52.758;6.872;2024-02-21T02:04:51;13.80;;;5.83;;
37529;SDS011;23374;52.758;6.872;2024-02-21T02:07:12;10.13;;;5.50;;
37529;SDS011;23374;52.758;6.872;2024-02-21T02:09:32;11.53;;;6.00;;
37529;SDS011;23374;52.758;6.872;2024-02-21T02:11:52;13.10;;;5.40;;
37529;SDS011;23374;52.758;6.872;2024-02-21T02:14:13;15.27;;;5.93;;
37529;SDS011;23374;52.758;6.872;2024-02-21T02:16:33;13.57;;;5.57;;
37529;SDS011;23374;52.758;6.872;2024-02-21T02:18:53;14.33;;;6.27;;
37529;SDS011;23374;52.758;6.872;2024-02-21T02:21:25;12.13;;;5.63;;
37529;SDS011;23374;52.758;6.872;2024-02-21T02:23:49;10.03;;;5.53;;
37529;SDS011;23374;52.758;6.872;2024-02-21T02:26:10;12.93;;;5.53;;
37529;SDS011;23374;52.758;6.872;2024-02-21T02:28:30;13.43;;;5.27;;
37529;SDS011;23374;52.758;6.872;2024-02-21T02:30:51;17.27;;;5.57;;
37529;SDS011;23374;52.758;6.872;2024-02-21T02:33:12;15.00;;;5.13;;
37529;SDS011;23374;52.758;6.872;2024-02-21T02:35:33;10.80;;;5.40;;
37529;SDS011;23374;52.758;6.872;2024-02-21T02:37:55;11.40;;;5.27;;
37529;SDS011;23374;52.758;6.872;2024-02-21T02:40:18;12.47;;;4.17;;
37529;SDS011;23374;52.758;6.872;2024-02-21T02:42:39;14.23;;;5.10;;
37529;SDS011;23374;52.758;6.872;2024-02-21T02:44:59;17.23;;;4.77;;
37529;SDS011;23374;52.758;6.872;2024-02-21T02:47:19;16.80;;;4.97;;
37529;SDS011;23374;52.758;6.872;2024-02-21T02:49:40;13.90;;;4.43;;
37529;SDS011;23374;52.758;6.872;2024-02-21T02:52:00;14.90;;;5.40;;
37529;SDS011;23374;52.758;6.872;2024-02-21T02:54:20;17.90;;;5.70;;
37529;SDS011;23374;52.758;6.872;2024-02-21T02:56:41;16.60;;;4.77;;
37529;SDS011;23374;52.758;6.872;2024-02-21T02:59:01;14.13;;;6.00;;
37529;SDS011;23374;52.758;6.872;2024-02-21T03:01:23;13.20;;;4.63;;
37529;SDS011;23374;52.758;6.872;2024-02-21T03:03:43;13.10;;;5.33;;
37529;SDS011;23374;52.758;6.872;2024-02-21T03:06:05;15.97;;;4.73;;
37529;SDS011;23374;52.758;6.872;2024-02-21T03:08:25;17.07;;;5.13;;
37529;SDS011;23374;52.758;6.872;2024-02-21T03:10:46;16.90;;;4.43;;
37529;SDS011;23374;52.758;6.872;2024-02-21T03:13:06;16.60;;;5.00;;
37529;SDS011;23374;52.758;6.872;2024-02-21T03:15:27;14.17;;;5.53;;
37529;SDS011;23374;52.758;6.872;2024-02-21T03:17:47;10.77;;;5.17;;
37529;SDS011;23374;52.758;6.872;2024-02-21T03:20:08;9.93;;;4.50;;
37529;SDS011;23374;52.758;6.872;2024-02-21T03:22:30;18.90;;;5.33;;
37529;SDS011;23374;52.758;6.872;2024-02-21T03:24:52;11.47;;;5.43;;
37529;SDS011;23374;52.758;6.872;2024-02-21T03:27:12;14.63;;;5.57;;
37529;SDS011;23374;52.758;6.872;2024-02-21T03:29:32;12.37;;;5.30;;
37529;SDS011;23374;52.758;6.872;2024-02-21T03:31:52;11.30;;;5.17;;
37529;SDS011;23374;52.758;6.872;2024-02-21T03:34:13;10.57;;;5.30;;
37529;SDS011;23374;52.758;6.872;2024-02-21T03:36:33;9.57;;;4.90;;
37529;SDS011;23374;52.758;6.872;2024-02-21T03:38:56;12.93;;;5.30;;
37529;SDS011;23374;52.758;6.872;2024-02-21T03:41:17;17.03;;;5.00;;
37529;SDS011;23374;52.758;6.872;2024-02-21T03:43:38;14.40;;;5.77;;
37529;SDS011;23374;52.758;6.872;2024-02-21T03:45:58;12.70;;;5.47;;
37529;SDS011;23374;52.758;6.872;2024-02-21T03:48:19;13.23;;;5.17;;
37529;SDS011;23374;52.758;6.872;2024-02-21T03:50:40;15.60;;;5.50;;
37529;SDS011;23374;52.758;6.872;2024-02-21T03:53:01;8.73;;;4.97;;
37529;SDS011;23374;52.758;6.872;2024-02-21T03:55:21;13.27;;;5.37;;
37529;SDS011;23374;52.758;6.872;2024-02-21T03:57:41;10.30;;;5.37;;
37529;SDS011;23374;52.758;6.872;2024-02-21T04:00:02;22.97;;;5.83;;
37529;SDS011;23374;52.758;6.872;2024-02-21T04:02:23;16.33;;;5.70;;
37529;SDS011;23374;52.758;6.872;2024-02-21T04:04:44;13.40;;;5.37;;
37529;SDS011;23374;52.758;6.872;2024-02-21T04:07:07;11.77;;;4.93;;
37529;SDS011;23374;52.758;6.872;2024-02-21T04:09:28;12.20;;;5.47;;
37529;SDS011;23374;52.758;6.872;2024-02-21T04:11:48;13.47;;;5.93;;
37529;SDS011;23374;52.758;6.872;2024-02-21T04:14:09;22.13;;;5.47;;
37529;SDS011;23374;52.758;6.872;2024-02-21T04:16:31;18.93;;;5.70;;
37529;SDS011;23374;52.758;6.872;2024-02-21T04:18:51;19.67;;;6.20;;
37529;SDS011;23374;52.758;6.872;2024-02-21T04:21:14;13.77;;;5.63;;
37529;SDS011;23374;52.758;6.872;2024-02-21T04:23:36;20.07;;;6.37;;
37529;SDS011;23374;52.758;6.872;2024-02-21T04:25:56;24.87;;;5.87;;
37529;SDS011;23374;52.758;6.872;2024-02-21T04:28:17;17.77;;;5.57;;
37529;SDS011;23374;52.758;6.872;2024-02-21T04:30:37;20.63;;;5.60;;
37529;SDS011;23374;52.758;6.872;2024-02-21T04:32:58;15.00;;;5.60;;
37529;SDS011;23374;52.758;6.872;2024-02-21T04:35:18;19.93;;;5.60;;
37529;SDS011;23374;52.758;6.872;2024-02-21T04:37:39;19.60;;;6.40;;
37529;SDS011;23374;52.758;6.872;2024-02-21T04:40:00;20.70;;;5.93;;
37529;SDS011;23374;52.758;6.872;2024-02-21T04:42:20;18.80;;;5.63;;
37529;SDS011;23374;52.758;6.872;2024-02-21T04:44:41;10.87;;;4.80;;
37529;SDS011;23374;52.758;6.872;2024-02-21T04:47:02;15.03;;;5.50;;
37529;SDS011;23374;52.758;6.872;2024-02-21T04:49:23;15.50;;;5.13;;
37529;SDS011;23374;52.758;6.872;2024-02-21T04:51:43;19.57;;;6.17;;
37529;SDS011;23374;52.758;6.872;2024-02-21T04:54:04;11.10;;;5.50;;
37529;SDS011;23374;52.758;6.872;2024-02-21T04:56:25;20.23;;;5.53;;
37529;SDS011;23374;52.758;6.872;2024-02-21T04:58:45;20.67;;;6.00;;
37529;SDS011;23374;52.758;6.872;2024-02-21T05:01:05;14.03;;;5.47;;
37529;SDS011;23374;52.758;6.872;2024-02-21T05:03:27;17.30;;;6.00;;
37529;SDS011;23374;52.758;6.872;2024-02-21T05:05:48;17.73;;;6.00;;
37529;SDS011;23374;52.758;6.872;2024-02-21T05:08:09;28.23;;;5.87;;
37529;SDS011;23374;52.758;6.872;2024-02-21T05:10:30;20.77;;;5.93;;
37529;SDS011;23374;52.758;6.872;2024-02-21T05:12:50;17.63;;;5.80;;
37529;SDS011;23374;52.758;6.872;2024-02-21T05:15:11;14.53;;;5.37;;
37529;SDS011;23374;52.758;6.872;2024-02-21T05:17:31;19.70;;;5.60;;
37529;SDS011;23374;52.758;6.872;2024-02-21T05:19:52;21.20;;;5.43;;
37529;SDS011;23374;52.758;6.872;2024-02-21T05:22:12;14.10;;;5.07;;
37529;SDS011;23374;52.758;6.872;2024-02-21T05:24:32;14.57;;;5.30;;
37529;SDS011;23374;52.758;6.872;2024-02-21T05:26:53;19.53;;;5.57;;
37529;SDS011;23374;52.758;6.872;2024-02-21T05:29:14;19.73;;;6.07;;
37529;SDS011;23374;52.758;6.872;2024-02-21T05:31:56;15.53;;;6.03;;
37529;SDS011;23374;52.758;6.872;2024-02-21T05:34:17;14.50;;;6.33;;
37529;SDS011;23374;52.758;6.872;2024-02-21T05:36:38;29.27;;;6.63;;
37529;SDS011;23374;52.758;6.872;2024-02-21T05:38:58;16.00;;;5.70;;
37529;SDS011;23374;52.758;6.872;2024-02-21T05:41:19;15.63;;;5.93;;
37529;SDS011;23374;52.758;6.872;2024-02-21T05:43:39;21.43;;;6.03;;
37529;SDS011;23374;52.758;6.872;2024-02-21T05:46:00;17.97;;;6.47;;
37529;SDS011;23374;52.758;6.872;2024-02-21T05:48:25;20.50;;;7.27;;
37529;SDS011;23374;52.758;6.872;2024-02-21T05:50:47;15.70;;;6.03;;
37529;SDS011;23374;52.758;6.872;2024-02-21T05:53:07;18.80;;;7.23;;
37529;SDS011;23374;52.758;6.872;2024-02-21T05:55:27;20.37;;;6.20;;
37529;SDS011;23374;52.758;6.872;2024-02-21T05:57:47;21.87;;;7.90;;
37529;SDS011;23374;52.758;6.872;2024-02-21T06:00:08;27.47;;;7.87;;
37529;SDS011;23374;52.758;6.872;2024-02-21T06:02:29;19.70;;;8.00;;
37529;SDS011;23374;52.758;6.872;2024-02-21T06:04:50;17.03;;;7.23;;
37529;SDS011;23374;52.758;6.872;2024-02-21T06:07:10;16.70;;;7.43;;
37529;SDS011;23374;52.758;6.872;2024-02-21T06:09:31;24.97;;;7.83;;
37529;SDS011;23374;52.758;6.872;2024-02-21T06:11:52;32.97;;;7.80;;
37529;SDS011;23374;52.758;6.872;2024-02-21T06:14:12;16.87;;;7.00;;
37529;SDS011;23374;52.758;6.872;2024-02-21T06:16:32;29.40;;;8.20;;
37529;SDS011;23374;52.758;6.872;2024-02-21T06:18:52;24.57;;;8.13;;
37529;SDS011;23374;52.758;6.872;2024-02-21T06:21:12;19.63;;;7.43;;
37529;SDS011;23374;52.758;6.872;2024-02-21T06:23:33;24.67;;;8.63;;
37529;SDS011;23374;52.758;6.872;2024-02-21T06:25:53;18.20;;;7.63;;
37529;SDS011;23374;52.758;6.872;2024-02-21T06:28:13;17.47;;;7.83;;
37529;SDS011;23374;52.758;6.872;2024-02-21T06:30:33;22.13;;;7.60;;
37529;SDS011;23374;52.758;6.872;2024-02-21T06:32:54;21.70;;;8.00;;
37529;SDS011;23374;52.758;6.872;2024-02-21T06:35:15;17.97;;;7.20;;
37529;SDS011;23374;52.758;6.872;2024-02-21T06:37:36;23.40;;;8.00;;
37529;SDS011;23374;52.758;6.872;2024-02-21T06:39:59;25.07;;;8.50;;
37529;SDS011;23374;52.758;6.872;2024-02-21T06:42:19;15.23;;;7.40;;
37529;SDS011;23374;52.758;6.872;2024-02-21T06:44:41;21.10;;;7.20;;
37529;SDS011;23374;52.758;6.872;2024-02-21T06:47:01;16.20;;;6.80;;
37529;SDS011;23374;52.758;6.872;2024-02-21T06:49:22;27.00;;;7.60;;
37529;SDS011;23374;52.758;6.872;2024-02-21T06:51:43;17.10;;;6.93;;
37529;SDS011;23374;52.758;6.872;2024-02-21T06:54:03;24.93;;;7.57;;
37529;SDS011;23374;52.758;6.872;2024-02-21T06:56:24;18.40;;;7.90;;
37529;SDS011;23374;52.758;6.872;2024-02-21T06:58:46;22.37;;;7.50;;
37529;SDS011;23374;52.758;6.872;2024-02-21T07:01:07;18.60;;;7.13;;
37529;SDS011;23374;52.758;6.872;2024-02-21T07:03:27;22.33;;;7.83;;
37529;SDS011;23374;52.758;6.872;2024-02-21T07:05:48;16.50;;;7.23;;
37529;SDS011;23374;52.758;6.872;2024-02-21T07:08:08;22.80;;;7.70;;
37529;SDS011;23374;52.758;6.872;2024-02-21T07:10:29;18.87;;;7.27;;
37529;SDS011;23374;52.758;6.872;2024-02-21T07:12:49;14.17;;;6.40;;
37529;SDS011;23374;52.758;6.872;2024-02-21T07:15:12;18.53;;;6.83;;
37529;SDS011;23374;52.758;6.872;2024-02-21T07:17:33;16.50;;;7.40;;
37529;SDS011;23374;52.758;6.872;2024-02-21T07:19:53;19.43;;;7.87;;
37529;SDS011;23374;52.758;6.872;2024-02-21T07:22:16;17.93;;;6.60;;
37529;SDS011;23374;52.758;6.872;2024-02-21T07:24:37;15.73;;;7.07;;
37529;SDS011;23374;52.758;6.872;2024-02-21T07:26:57;19.57;;;7.23;;
37529;SDS011;23374;52.758;6.872;2024-02-21T07:29:23;21.90;;;7.57;;
37529;SDS011;23374;52.758;6.872;2024-02-21T07:31:44;20.73;;;7.37;;
37529;SDS011;23374;52.758;6.872;2024-02-21T07:34:05;20.63;;;7.97;;
37529;SDS011;23374;52.758;6.872;2024-02-21T07:36:29;14.50;;;7.83;;
37529;SDS011;23374;52.758;6.872;2024-02-21T07:38:50;21.63;;;7.70;;
37529;SDS011;23374;52.758;6.872;2024-02-21T07:41:10;20.30;;;8.50;;
37529;SDS011;23374;52.758;6.872;2024-02-21T07:43:30;20.10;;;8.90;;
37529;SDS011;23374;52.758;6.872;2024-02-21T07:45:50;20.80;;;9.20;;
37529;SDS011;23374;52.758;6.872;2024-02-21T07:48:11;20.07;;;9.10;;
37529;SDS011;23374;52.758;6.872;2024-02-21T07:50:31;18.20;;;9.07;;
37529;SDS011;23374;52.758;6.872;2024-02-21T07:52:51;16.23;;;9.23;;
37529;SDS011;23374;52.758;6.872;2024-02-21T07:55:12;19.73;;;9.00;;
37529;SDS011;23374;52.758;6.872;2024-02-21T07:57:32;17.67;;;8.67;;
37529;SDS011;23374;52.758;6.872;2024-02-21T07:59:52;21.13;;;9.20;;
37529;SDS011;23374;52.758;6.872;2024-02-21T08:02:14;18.50;;;9.53;;
37529;SDS011;23374;52.758;6.872;2024-02-21T08:04:34;19.50;;;8.27;;
37529;SDS011;23374;52.758;6.872;2024-02-21T08:06:55;19.87;;;9.97;;
37529;SDS011;23374;52.758;6.872;2024-02-21T08:09:15;22.90;;;10.03;;
37529;SDS011;23374;52.758;6.872;2024-02-21T08:11:36;20.33;;;9.27;;
37529;SDS011;23374;52.758;6.872;2024-02-21T08:13:56;18.83;;;8.57;;
37529;SDS011;23374;52.758;6.872;2024-02-21T08:16:17;22.23;;;8.80;;
37529;SDS011;23374;52.758;6.872;2024-02-21T08:18:37;19.97;;;8.97;;
37529;SDS011;23374;52.758;6.872;2024-02-21T08:20:58;24.50;;;9.00;;
37529;SDS011;23374;52.758;6.872;2024-02-21T08:23:19;18.27;;;8.00;;
37529;SDS011;23374;52.758;6.872;2024-02-21T08:25:42;19.63;;;9.77;;
37529;SDS011;23374;52.758;6.872;2024-02-21T08:28:05;21.93;;;8.60;;
37529;SDS011;23374;52.758;6.872;2024-02-21T08:30:25;17.40;;;7.00;;
37529;SDS011;23374;52.758;6.872;2024-02-21T08:32:45;18.23;;;8.20;;
37529;SDS011;23374;52.758;6.872;2024-02-21T08:35:07;23.70;;;9.13;;
37529;SDS011;23374;52.758;6.872;2024-02-21T08:37:28;18.33;;;8.50;;
37529;SDS011;23374;52.758;6.872;2024-02-21T08:39:49;24.93;;;9.90;;
37529;SDS011;23374;52.758;6.872;2024-02-21T08:42:09;20.17;;;8.47;;
37529;SDS011;23374;52.758;6.872;2024-02-21T08:44:29;18.57;;;8.00;;
37529;SDS011;23374;52.758;6.872;2024-02-21T08:46:49;15.37;;;6.77;;
37529;SDS011;23374;52.758;6.872;2024-02-21T08:49:10;23.43;;;8.60;;
37529;SDS011;23374;52.758;6.872;2024-02-21T08:51:30;21.10;;;9.87;;
37529;SDS011;23374;52.758;6.872;2024-02-21T08:53:50;14.70;;;7.20;;
37529;SDS011;23374;52.758;6.872;2024-02-21T08:56:12;20.67;;;8.57;;
37529;SDS011;23374;52.758;6.872;2024-02-21T08:58:33;21.60;;;9.50;;
37529;SDS011;23374;52.758;6.872;2024-02-21T09:00:55;21.20;;;9.60;;
37529;SDS011;23374;52.758;6.872;2024-02-21T09:03:16;18.53;;;8.30;;
37529;SDS011;23374;52.758;6.872;2024-02-21T09:05:39;18.73;;;8.90;;
37529;SDS011;23374;52.758;6.872;2024-02-21T09:07:59;22.23;;;8.63;;
37529;SDS011;23374;52.758;6.872;2024-02-21T09:10:20;15.43;;;8.27;;
37529;SDS011;23374;52.758;6.872;2024-02-21T09:12:41;18.07;;;8.83;;
37529;SDS011;23374;52.758;6.872;2024-02-21T09:15:01;17.83;;;8.00;;
37529;SDS011;23374;52.758;6.872;2024-02-21T09:17:21;16.60;;;7.97;;
37529;SDS011;23374;52.758;6.872;2024-02-21T09:19:42;14.10;;;7.40;;
37529;SDS011;23374;52.758;6.872;2024-02-21T09:22:04;15.13;;;6.93;;
37529;SDS011;23374;52.758;6.872;2024-02-21T09:24:24;20.07;;;8.33;;
37529;SDS011;23374;52.758;6.872;2024-02-21T09:26:44;18.27;;;8.20;;
37529;SDS011;23374;52.758;6.872;2024-02-21T09:29:09;20.90;;;7.70;;
37529;SDS011;23374;52.758;6.872;2024-02-21T09:31:29;22.60;;;8.03;;
37529;SDS011;23374;52.758;6.872;2024-02-21T09:33:50;14.83;;;7.70;;
37529;SDS011;23374;52.758;6.872;2024-02-21T09:36:11;14.17;;;6.73;;
37529;SDS011;23374;52.758;6.872;2024-02-21T09:38:31;13.73;;;6.23;;
37529;SDS011;23374;52.758;6.872;2024-02-21T09:41:36;13.60;;;5.90;;
37529;SDS011;23374;52.758;6.872;2024-02-21T09:44:02;8.87;;;4.73;;
37529;SDS011;23374;52.758;6.872;2024-02-21T09:46:44;16.13;;;7.37;;
37529;SDS011;23374;52.758;6.872;2024-02-21T09:49:41;18.43;;;6.83;;
37529;SDS011;23374;52.758;6.872;2024-02-21T09:52:07;20.77;;;6.77;;
37529;SDS011;23374;52.758;6.872;2024-02-21T09:54:28;14.10;;;7.07;;
37529;SDS011;23374;52.758;6.872;2024-02-21T09:56:52;15.03;;;6.83;;
37529;SDS011;23374;52.758;6.872;2024-02-21T09:59:16;13.50;;;6.27;;
37529;SDS011;23374;52.758;6.872;2024-02-21T10:01:37;20.40;;;7.37;;
37529;SDS011;23374;52.758;6.872;2024-02-21T10:03:57;12.50;;;4.80;;
37529;SDS011;23374;52.758;6.872;2024-02-21T10:06:18;11.13;;;4.17;;
37529;SDS011;23374;52.758;6.872;2024-02-21T10:08:38;16.60;;;6.90;;
37529;SDS011;23374;52.758;6.872;2024-02-21T10:10:59;13.40;;;6.83;;
37529;SDS011;23374;52.758;6.872;2024-02-21T10:13:29;16.03;;;6.53;;
37529;SDS011;23374;52.758;6.872;2024-02-21T10:16:08;13.30;;;6.47;;
37529;SDS011;23374;52.758;6.872;2024-02-21T10:18:29;14.50;;;5.00;;
37529;SDS011;23374;52.758;6.872;2024-02-21T10:21:02;13.53;;;7.00;;
37529;SDS011;23374;52.758;6.872;2024-02-21T10:23:23;17.97;;;6.23;;
37529;SDS011;23374;52.758;6.872;2024-02-21T10:25:44;13.60;;;6.60;;
37529;SDS011;23374;52.758;6.872;2024-02-21T10:28:06;17.80;;;6.40;;
37529;SDS011;23374;52.758;6.872;2024-02-21T10:30:27;11.90;;;6.07;;
37529;SDS011;23374;52.758;6.872;2024-02-21T10:32:51;10.83;;;5.53;;
37529;SDS011;23374;52.758;6.872;2024-02-21T10:35:13;15.50;;;6.00;;
37529;SDS011;23374;52.758;6.872;2024-02-21T10:37:33;16.53;;;5.80;;
37529;SDS011;23374;52.758;6.872;2024-02-21T10:39:53;12.77;;;5.97;;
37529;SDS011;23374;52.758;6.872;2024-02-21T10:42:14;15.17;;;5.37;;
37529;SDS011;23374;52.758;6.872;2024-02-21T10:44:38;17.60;;;6.67;;
37529;SDS011;23374;52.758;6.872;2024-02-21T10:47:00;13.60;;;6.67;;
37529;SDS011;23374;52.758;6.872;2024-02-21T10:49:26;13.17;;;5.53;;
37529;SDS011;23374;52.758;6.872;2024-02-21T10:51:49;18.00;;;6.33;;
37529;SDS011;23374;52.758;6.872;2024-02-21T10:59:00;10.53;;;5.50;;
37529;SDS011;23374;52.758;6.872;2024-02-21T11:01:22;11.07;;;5.97;;
37529;SDS011;23374;52.758;6.872;2024-02-21T11:03:47;11.40;;;6.20;;
37529;SDS011;23374;52.758;6.872;2024-02-21T11:06:10;10.77;;;5.27;;
37529;SDS011;23374;52.758;6.872;2024-02-21T11:08:32;14.17;;;5.40;;
37529;SDS011;23374;52.758;6.872;2024-02-21T11:10:56;13.80;;;6.17;;
37529;SDS011;23374;52.758;6.872;2024-02-21T11:13:34;10.27;;;4.37;;
37529;SDS011;23374;52.758;6.872;2024-02-21T11:16:05;11.67;;;5.27;;
37529;SDS011;23374;52.758;6.872;2024-02-21T11:18:29;13.23;;;5.00;;
37529;SDS011;23374;52.758;6.872;2024-02-21T11:20:50;12.03;;;5.27;;
37529;SDS011;23374;52.758;6.872;2024-02-21T11:23:24;9.10;;;4.83;;
37529;SDS011;23374;52.758;6.872;2024-02-21T11:25:45;10.67;;;5.40;;
37529;SDS011;23374;52.758;6.872;2024-02-21T11:28:06;12.37;;;5.23;;
37529;SDS011;23374;52.758;6.872;2024-02-21T11:30:27;9.50;;;5.27;;
37529;SDS011;23374;52.758;6.872;2024-02-21T11:33:00;9.33;;;4.90;;
37529;SDS011;23374;52.758;6.872;2024-02-21T11:35:22;5.43;;;3.80;;
37529;SDS011;23374;52.758;6.872;2024-02-21T11:37:42;8.13;;;4.30;;
37529;SDS011;23374;52.758;6.872;2024-02-21T11:40:06;13.73;;;5.20;;
37529;SDS011;23374;52.758;6.872;2024-02-21T11:42:30;8.93;;;4.20;;
37529;SDS011;23374;52.758;6.872;2024-02-21T11:44:50;14.40;;;5.30;;
37529;SDS011;23374;52.758;6.872;2024-02-21T11:47:10;10.87;;;5.23;;
37529;SDS011;23374;52.758;6.872;2024-02-21T11:49:38;10.97;;;5.50;;
37529;SDS011;23374;52.758;6.872;2024-02-21T11:52:06;11.53;;;4.67;;
37529;SDS011;23374;52.758;6.872;2024-02-21T11:54:27;11.30;;;4.93;;
37529;SDS011;23374;52.758;6.872;2024-02-21T11:56:47;9.27;;;5.00;;
37529;SDS011;23374;52.758;6.872;2024-02-21T11:59:08;11.50;;;4.37;;
37529;SDS011;23374;52.758;6.872;2024-02-21T12:01:28;10.70;;;4.53;;
37529;SDS011;23374;52.758;6.872;2024-02-21T12:03:49;7.93;;;4.30;;
37529;SDS011;23374;52.758;6.872;2024-02-21T12:06:10;7.30;;;3.73;;
37529;SDS011;23374;52.758;6.872;2024-02-21T12:08:43;8.73;;;4.63;;
37529;SDS011;23374;52.758;6.872;2024-02-21T12:11:03;9.53;;;4.43;;
37529;SDS011;23374;52.758;6.872;2024-02-21T12:13:24;8.13;;;4.03;;
37529;SDS011;23374;52.758;6.872;2024-02-21T12:15:47;7.00;;;3.90;;
37529;SDS011;23374;52.758;6.872;2024-02-21T12:18:10;8.83;;;4.40;;
37529;SDS011;23374;52.758;6.872;2024-02-21T12:20:30;7.33;;;3.93;;
37529;SDS011;23374;52.758;6.872;2024-02-21T12:22:52;9.37;;;3.77;;
37529;SDS011;23374;52.758;6.872;2024-02-21T12:25:18;7.50;;;4.07;;
37529;SDS011;23374;52.758;6.872;2024-02-21T12:27:39;7.87;;;3.83;;
37529;SDS011;23374;52.758;6.872;2024-02-21T12:30:00;9.20;;;3.90;;
37529;SDS011;23374;52.758;6.872;2024-02-21T12:32:21;9.23;;;3.43;;
37529;SDS011;23374;52.758;6.872;2024-02-21T12:34:43;5.20;;;2.90;;
37529;SDS011;23374;52.758;6.872;2024-02-21T12:37:04;5.40;;;2.50;;
37529;SDS011;23374;52.758;6.872;2024-02-21T12:39:24;9.83;;;3.60;;
37529;SDS011;23374;52.758;6.872;2024-02-21T12:41:47;6.17;;;3.17;;
37529;SDS011;23374;52.758;6.872;2024-02-21T12:44:08;8.10;;;3.13;;
37529;SDS011;23374;52.758;6.872;2024-02-21T12:46:29;3.87;;;2.40;;
37529;SDS011;23374;52.758;6.872;2024-02-21T12:48:50;5.03;;;2.03;;
37529;SDS011;23374;52.758;6.872;2024-02-21T12:51:10;7.10;;;2.10;;
37529;SDS011;23374;52.758;6.872;2024-02-21T12:53:31;4.17;;;2.47;;
37529;SDS011;23374;52.758;6.872;2024-02-21T12:55:51;6.23;;;2.50;;
37529;SDS011;23374;52.758;6.872;2024-02-21T12:58:12;4.57;;;2.03;;
37529;SDS011;23374;52.758;6.872;2024-02-21T13:00:33;5.23;;;2.33;;
37529;SDS011;23374;52.758;6.872;2024-02-21T13:02:55;7.10;;;2.37;;
37529;SDS011;23374;52.758;6.872;2024-02-21T13:05:16;6.20;;;3.07;;
37529;SDS011;23374;52.758;6.872;2024-02-21T13:07:36;3.80;;;2.60;;
37529;SDS011;23374;52.758;6.872;2024-02-21T13:09:57;6.87;;;2.80;;
37529;SDS011;23374;52.758;6.872;2024-02-21T13:12:18;7.93;;;3.17;;
37529;SDS011;23374;52.758;6.872;2024-02-21T13:14:38;8.53;;;3.00;;
37529;SDS011;23374;52.758;6.872;2024-02-21T13:16:59;9.77;;;3.20;;
37529;SDS011;23374;52.758;6.872;2024-02-21T13:19:20;7.20;;;3.43;;
37529;SDS011;23374;52.758;6.872;2024-02-21T13:21:40;7.57;;;3.40;;
37529;SDS011;23374;52.758;6.872;2024-02-21T13:24:01;5.17;;;2.23;;
37529;SDS011;23374;52.758;6.872;2024-02-21T13:26:22;7.00;;;3.30;;
37529;SDS011;23374;52.758;6.872;2024-02-21T13:28:42;7.47;;;3.70;;
37529;SDS011;23374;52.758;6.872;2024-02-21T13:31:04;5.13;;;3.10;;
37529;SDS011;23374;52.758;6.872;2024-02-21T13:33:25;8.00;;;3.10;;
37529;SDS011;23374;52.758;6.872;2024-02-21T13:35:45;8.57;;;3.30;;
37529;SDS011;23374;52.758;6.872;2024-02-21T13:38:05;6.70;;;3.50;;
37529;SDS011;23374;52.758;6.872;2024-02-21T13:40:26;6.90;;;3.03;;
37529;SDS011;23374;52.758;6.872;2024-02-21T13:42:47;5.53;;;3.00;;
37529;SDS011;23374;52.758;6.872;2024-02-21T13:45:09;7.07;;;3.97;;
37529;SDS011;23374;52.758;6.872;2024-02-21T13:47:29;6.57;;;3.40;;
37529;SDS011;23374;52.758;6.872;2024-02-21T13:49:50;10.70;;;4.30;;
37529;SDS011;23374;52.758;6.872;2024-02-21T13:52:10;8.77;;;3.53;;
37529;SDS011;23374;52.758;6.872;2024-02-21T13:54:30;6.17;;;4.03;;
37529;SDS011;23374;52.758;6.872;2024-02-21T13:56:50;9.17;;;3.67;;
37529;SDS011;23374;52.758;6.872;2024-02-21T13:59:15;8.20;;;3.37;;
37529;SDS011;23374;52.758;6.872;2024-02-21T14:01:36;5.97;;;3.50;;
37529;SDS011;23374;52.758;6.872;2024-02-21T14:03:56;10.70;;;4.27;;
37529;SDS011;23374;52.758;6.872;2024-02-21T14:06:16;9.53;;;3.73;;